Time;durP1;ratioP1;P1;durP2;ratioP2;P2;SDS_P1;SDS_P2;PMS_P1;PMS_P2;Temp;Humidity;BMP_temperature;BMP_pressure;BME280_temperature;BME280_humidity;BME280_pressure;Samples;Min_cycle;Max_cycle;Signal;HPM_P1;HPM_P2
2022/08/25 00:00:35;;;;;;;37.17;33.05;;;;;;;;;;5040637;28;20021;-68
2022/08/25 00:03:01;;;;;;;39.30;34.88;;;;;;;;;;5028936;28;20041;-68
2022/08/25 00:05:28;;;;;;;40.30;34.03;;;;;;;;;;5029671;28;20025;-68
2022/08/25 00:07:54;;;;;;;39.83;35.47;;;;;;;;;;5034293;28;20691;-68
2022/08/25 00:10:20;;;;;;;49.03;38.22;;;;;;;;;;5033727;28;20518;-68
2022/08/25 00:12:46;;;;;;;48.03;37.00;;;;;;;;;;5021292;28;20482;-68
2022/08/25 00:15:12;;;;;;;47.42;38.10;;;;;;;;;;5039051;28;20029;-68
2022/08/25 00:17:39;;;;;;;48.85;36.28;;;;;;;;;;5039553;28;20068;-68
2022/08/25 00:20:05;;;;;;;46.92;38.20;;;;;;;;;;5037940;28;20444;-68
2022/08/25 00:22:32;;;;;;;48.70;39.08;;;;;;;;;;5028492;28;20068;-69
2022/08/25 00:24:58;;;;;;;43.80;38.78;;;;;;;;;;5035573;28;20029;-69
2022/08/25 00:27:24;;;;;;;43.92;39.05;;;;;;;;;;5035512;28;20029;-69
2022/08/25 00:29:50;;;;;;;50.50;41.55;;;;;;;;;;5038428;28;20032;-69
2022/08/25 00:32:17;;;;;;;43.38;38.65;;;;;;;;;;5032686;28;20026;-68
2022/08/25 00:34:43;;;;;;;47.60;40.10;;;;;;;;;;5031967;28;20025;-68
2022/08/25 00:37:09;;;;;;;46.15;38.70;;;;;;;;;;5039935;28;20032;-66
2022/08/25 00:39:35;;;;;;;47.22;41.17;;;;;;;;;;5033225;28;20029;-68
2022/08/25 00:42:03;;;;;;;48.20;41.50;;;;;;;;;;5033379;28;20022;-69
2022/08/25 00:44:30;;;;;;;49.63;42.17;;;;;;;;;;5036441;28;20123;-68
2022/08/25 00:46:57;;;;;;;54.53;45.25;;;;;;;;;;5041175;28;20479;-69
2022/08/25 00:49:25;;;;;;;52.20;45.67;;;;;;;;;;5034125;28;20029;-68
2022/08/25 00:51:51;;;;;;;50.03;43.40;;;;;;;;;;5038805;28;20519;-67
2022/08/25 00:54:20;;;;;;;49.47;43.67;;;;;;;;;;5035421;28;20025;-68
2022/08/25 00:56:46;;;;;;;53.67;44.13;;;;;;;;;;5034512;28;20025;-68
2022/08/25 00:59:13;;;;;;;53.22;43.95;;;;;;;;;;5034322;28;20058;-68
2022/08/25 01:01:39;;;;;;;59.85;45.80;;;;;;;;;;5031463;28;20033;-67
2022/08/25 01:04:06;;;;;;;52.22;44.72;;;;;;;;;;5030076;28;20037;-69
2022/08/25 01:06:33;;;;;;;56.13;47.63;;;;;;;;;;5037659;28;20391;-69
2022/08/25 01:08:59;;;;;;;59.95;47.05;;;;;;;;;;5035636;28;20031;-70
2022/08/25 01:11:26;;;;;;;49.30;41.13;;;;;;;;;;5034863;28;20033;-69
2022/08/25 01:13:54;;;;;;;48.92;41.08;;;;;;;;;;5030856;28;20026;-69
2022/08/25 01:16:20;;;;;;;46.17;37.22;;;;;;;;;;5033836;28;20056;-69
2022/08/25 01:18:48;;;;;;;56.33;45.00;;;;;;;;;;5021459;28;20501;-68
2022/08/25 01:21:15;;;;;;;55.10;47.85;;;;;;;;;;5031826;28;20873;-68
2022/08/25 01:23:41;;;;;;;58.80;49.63;;;;;;;;;;5035830;28;20040;-69
2022/08/25 01:26:13;;;;;;;63.50;52.47;;;;;;;;;;5018723;28;20042;-70
2022/08/25 01:29:19;;;;;;;63.97;50.92;;;;;;;;;;5039554;28;20025;-69
2022/08/25 01:31:26;;;;;;;68.43;54.58;;;;;;;;;;5034244;28;20278;-68
2022/08/25 01:33:52;;;;;;;69.38;56.08;;;;;;;;;;5037617;28;20525;-69
2022/08/25 01:36:19;;;;;;;71.57;55.17;;;;;;;;;;5039283;28;20037;-69
2022/08/25 01:38:45;;;;;;;63.95;53.42;;;;;;;;;;5028819;28;20088;-68
2022/08/25 01:41:11;;;;;;;61.97;49.92;;;;;;;;;;5025074;28;20045;-69
2022/08/25 01:43:38;;;;;;;54.80;48.67;;;;;;;;;;5038579;28;20037;-68
2022/08/25 01:46:04;;;;;;;55.72;47.83;;;;;;;;;;5042668;28;20051;-68
2022/08/25 01:48:31;;;;;;;59.88;47.20;;;;;;;;;;5038012;28;20033;-68
2022/08/25 01:50:58;;;;;;;57.08;48.08;;;;;;;;;;5020431;28;20056;-68
2022/08/25 01:53:23;;;;;;;63.03;49.42;;;;;;;;;;5015334;28;20091;-69
2022/08/25 01:56:00;;;;;;;59.90;49.88;;;;;;;;;;5035073;28;20475;-68
2022/08/25 01:58:28;;;;;;;53.88;48.00;;;;;;;;;;5026378;28;20044;-69
2022/08/25 02:00:56;;;;;;;53.05;44.17;;;;;;;;;;5042169;28;20029;-68
2022/08/25 02:03:23;;;;;;;52.35;45.40;;;;;;;;;;5030544;28;20135;-68
2022/08/25 02:05:49;;;;;;;51.97;44.17;;;;;;;;;;5039547;28;20093;-68
2022/08/25 02:08:15;;;;;;;45.30;40.55;;;;;;;;;;5017090;28;20677;-69
2022/08/25 02:10:41;;;;;;;49.25;40.55;;;;;;;;;;5032870;28;20029;-67
2022/08/25 02:13:07;;;;;;;44.47;39.63;;;;;;;;;;5037107;28;20518;-68
2022/08/25 02:15:39;;;;;;;49.65;38.40;;;;;;;;;;5035782;28;20037;-68
2022/08/25 02:18:05;;;;;;;46.47;39.00;;;;;;;;;;5036917;28;20512;-68
2022/08/25 02:20:31;;;;;;;41.33;37.03;;;;;;;;;;5045435;28;20029;-68
2022/08/25 02:22:57;;;;;;;46.00;37.80;;;;;;;;;;5029898;28;20072;-69
2022/08/25 02:25:23;;;;;;;43.85;37.08;;;;;;;;;;5040936;28;20045;-69
2022/08/25 02:27:49;;;;;;;39.28;34.15;;;;;;;;;;5016086;28;20386;-69
2022/08/25 02:30:17;;;;;;;40.03;35.47;;;;;;;;;;5036632;28;20044;-69
2022/08/25 02:32:43;;;;;;;39.17;34.85;;;;;;;;;;5032101;28;20067;-69
2022/08/25 02:35:10;;;;;;;38.22;33.75;;;;;;;;;;5032698;28;20132;-68
2022/08/25 02:37:36;;;;;;;38.20;34.10;;;;;;;;;;5032625;28;20098;-68
2022/08/25 02:40:03;;;;;;;38.42;34.42;;;;;;;;;;5034937;28;20076;-69
2022/08/25 02:42:29;;;;;;;42.95;33.28;;;;;;;;;;5038276;28;20064;-68
2022/08/25 02:44:56;;;;;;;38.40;33.58;;;;;;;;;;5035497;28;20044;-69
2022/08/25 02:47:22;;;;;;;35.03;31.30;;;;;;;;;;5037156;28;20038;-69
2022/08/25 02:49:48;;;;;;;37.17;32.60;;;;;;;;;;5033860;28;20435;-68
2022/08/25 02:52:15;;;;;;;36.92;32.90;;;;;;;;;;5037207;28;20040;-69
2022/08/25 02:54:41;;;;;;;42.03;33.63;;;;;;;;;;5033037;28;20056;-69
2022/08/25 02:57:10;;;;;;;36.03;32.10;;;;;;;;;;5018415;28;20488;-68
2022/08/25 02:59:37;;;;;;;35.08;31.38;;;;;;;;;;5035131;28;20034;-68
2022/08/25 03:02:04;;;;;;;37.55;32.50;;;;;;;;;;5034266;28;20094;-68
2022/08/25 03:04:30;;;;;;;36.97;33.17;;;;;;;;;;5017319;28;20033;-69
2022/08/25 03:06:57;;;;;;;38.85;31.85;;;;;;;;;;5042532;28;20099;-68
2022/08/25 03:09:23;;;;;;;34.88;30.92;;;;;;;;;;5033509;28;20102;-70
2022/08/25 03:11:49;;;;;;;35.15;30.20;;;;;;;;;;5034265;28;20056;-69
2022/08/25 03:14:16;;;;;;;38.05;30.42;;;;;;;;;;5037324;28;20596;-69
2022/08/25 03:16:43;;;;;;;31.67;27.95;;;;;;;;;;5038910;28;20045;-69
2022/08/25 03:19:09;;;;;;;30.33;27.02;;;;;;;;;;5038464;28;20028;-68
2022/08/25 03:21:37;;;;;;;29.08;26.02;;;;;;;;;;5041058;28;21479;-68
2022/08/25 03:24:03;;;;;;;25.92;23.20;;;;;;;;;;5022406;28;20029;-67
2022/08/25 03:29:14;;;;;;;21.60;18.58;;;;;;;;;;5036598;28;20069;-68
2022/08/25 03:31:43;;;;;;;21.98;17.25;;;;;;;;;;5032640;28;20037;-68
2022/08/25 03:34:09;;;;;;;21.15;16.67;;;;;;;;;;5030403;28;20024;-69
2022/08/25 03:36:36;;;;;;;19.10;15.95;;;;;;;;;;5034212;28;20026;-69
2022/08/25 03:39:02;;;;;;;19.13;14.40;;;;;;;;;;5014454;28;20048;-70
2022/08/25 03:41:31;;;;;;;19.20;14.93;;;;;;;;;;5026215;28;20053;-69
2022/08/25 03:43:58;;;;;;;16.40;14.70;;;;;;;;;;5032739;28;20049;-68
2022/08/25 03:46:28;;;;;;;16.63;14.65;;;;;;;;;;5036158;28;20043;-67
2022/08/25 03:48:55;;;;;;;15.63;13.38;;;;;;;;;;5032442;28;20033;-68
2022/08/25 03:51:23;;;;;;;21.15;14.07;;;;;;;;;;5035986;28;20049;-67
2022/08/25 03:53:49;;;;;;;19.73;13.80;;;;;;;;;;5034679;28;20022;-69
2022/08/25 03:56:17;;;;;;;16.27;12.75;;;;;;;;;;5032817;28;20114;-69
2022/08/25 03:58:43;;;;;;;15.45;12.25;;;;;;;;;;5030676;28;20037;-68
2022/08/25 04:01:09;;;;;;;15.07;12.38;;;;;;;;;;5035268;28;20032;-70
2022/08/25 04:03:35;;;;;;;14.77;11.85;;;;;;;;;;5030398;28;20112;-68
2022/08/25 04:06:02;;;;;;;17.13;12.48;;;;;;;;;;5039462;28;20048;-67
2022/08/25 04:08:28;;;;;;;13.00;11.57;;;;;;;;;;5034310;28;20031;-67
2022/08/25 04:10:54;;;;;;;15.73;11.60;;;;;;;;;;5036100;28;20068;-67
2022/08/25 04:13:22;;;;;;;13.07;11.15;;;;;;;;;;5015752;28;20037;-68
2022/08/25 04:15:48;;;;;;;13.73;11.40;;;;;;;;;;5036783;28;20491;-68
2022/08/25 04:18:14;;;;;;;16.67;11.93;;;;;;;;;;5028732;28;20690;-69
2022/08/25 04:20:41;;;;;;;18.38;11.48;;;;;;;;;;5031881;28;20052;-69
2022/08/25 04:23:10;;;;;;;13.20;10.35;;;;;;;;;;5033566;28;20491;-68
2022/08/25 04:25:41;;;;;;;18.52;10.48;;;;;;;;;;5037156;28;20071;-67
2022/08/25 04:28:07;;;;;;;14.32;10.70;;;;;;;;;;5034216;28;20245;-68
2022/08/25 04:30:33;;;;;;;14.68;9.90;;;;;;;;;;5037236;28;20025;-69
2022/08/25 04:32:59;;;;;;;14.43;11.70;;;;;;;;;;5030897;28;20496;-69
2022/08/25 04:35:26;;;;;;;13.38;10.40;;;;;;;;;;5032286;28;20719;-69
2022/08/25 04:37:52;;;;;;;12.15;10.82;;;;;;;;;;5032982;28;20086;-68
2022/08/25 04:40:19;;;;;;;18.80;12.05;;;;;;;;;;5036119;28;20025;-68
2022/08/25 04:42:45;;;;;;;23.80;10.93;;;;;;;;;;5038529;28;20402;-68
2022/08/25 04:45:11;;;;;;;17.25;10.82;;;;;;;;;;5035838;28;20046;-68
2022/08/25 04:47:38;;;;;;;14.95;10.10;;;;;;;;;;5035553;28;20037;-68
2022/08/25 04:50:05;;;;;;;17.08;10.63;;;;;;;;;;5034280;28;20033;-68
2022/08/25 04:52:31;;;;;;;13.35;9.80;;;;;;;;;;5036174;28;20488;-68
2022/08/25 04:54:58;;;;;;;16.40;9.30;;;;;;;;;;5033180;28;20037;-68
2022/08/25 04:57:24;;;;;;;10.68;9.05;;;;;;;;;;5035821;28;20087;-68
2022/08/25 04:59:50;;;;;;;14.93;9.77;;;;;;;;;;5036221;28;20036;-68
2022/08/25 05:02:17;;;;;;;13.40;9.32;;;;;;;;;;5029802;28;20033;-68
2022/08/25 05:04:43;;;;;;;12.13;9.02;;;;;;;;;;5031497;28;20256;-68
2022/08/25 05:07:09;;;;;;;14.02;9.35;;;;;;;;;;5036727;28;20041;-68
2022/08/25 05:09:36;;;;;;;16.23;9.98;;;;;;;;;;5034086;28;20037;-69
2022/08/25 05:12:03;;;;;;;12.20;9.90;;;;;;;;;;5032326;28;20467;-69
2022/08/25 05:14:29;;;;;;;17.42;10.98;;;;;;;;;;5015433;28;20025;-68
2022/08/25 05:16:56;;;;;;;14.05;10.27;;;;;;;;;;5037143;28;20436;-67
2022/08/25 05:19:23;;;;;;;19.48;11.52;;;;;;;;;;5034239;28;20505;-68
2022/08/25 05:21:49;;;;;;;21.58;11.52;;;;;;;;;;5028594;28;20041;-68
2022/08/25 05:24:15;;;;;;;18.90;10.82;;;;;;;;;;5030051;28;20037;-67
2022/08/25 05:26:41;;;;;;;21.63;10.15;;;;;;;;;;5031968;28;20045;-68
2022/08/25 05:29:09;;;;;;;13.20;9.85;;;;;;;;;;5017136;28;20059;-68
2022/08/25 05:31:35;;;;;;;21.13;10.20;;;;;;;;;;5034218;28;20114;-68
2022/08/25 05:34:05;;;;;;;35.38;10.15;;;;;;;;;;5035737;28;20044;-67
2022/08/25 05:36:32;;;;;;;21.17;10.93;;;;;;;;;;5021989;28;20033;-67
2022/08/25 05:38:58;;;;;;;17.25;9.93;;;;;;;;;;5030723;28;20037;-67
2022/08/25 05:41:27;;;;;;;63.25;11.88;;;;;;;;;;5029535;28;20033;-66
2022/08/25 05:43:53;;;;;;;23.42;10.68;;;;;;;;;;5038739;28;20751;-68
2022/08/25 05:46:20;;;;;;;44.95;11.52;;;;;;;;;;5042832;28;20513;-67
2022/08/25 05:48:47;;;;;;;38.60;10.43;;;;;;;;;;5052134;28;20048;-68
2022/08/25 05:51:13;;;;;;;22.02;9.25;;;;;;;;;;5055853;28;20032;-68
2022/08/25 05:53:41;;;;;;;17.45;9.10;;;;;;;;;;5053408;28;20033;-68
2022/08/25 05:56:07;;;;;;;14.98;8.27;;;;;;;;;;5050664;28;20122;-69
2022/08/25 05:58:33;;;;;;;16.55;8.10;;;;;;;;;;5056086;28;20064;-68
2022/08/25 06:03:46;;;;;;;15.25;8.02;;;;;;;;;;5053722;28;21010;-68
2022/08/25 06:06:12;;;;;;;20.40;7.43;;;;;;;;;;5057424;28;20045;-67
2022/08/25 06:08:39;;;;;;;19.40;7.30;;;;;;;;;;5052386;28;20017;-69
2022/08/25 06:11:06;;;;;;;13.77;7.50;;;;;;;;;;5049764;28;20517;-68
2022/08/25 06:13:32;;;;;;;13.27;7.60;;;;;;;;;;5059082;28;20037;-67
2022/08/25 06:16:01;;;;;;;15.65;6.72;;;;;;;;;;5062491;28;20082;-68
2022/08/25 06:18:27;;;;;;;10.13;6.70;;;;;;;;;;5053358;28;20025;-68
2022/08/25 06:20:53;;;;;;;11.05;6.68;;;;;;;;;;5054569;28;20052;-68
2022/08/25 06:23:20;;;;;;;10.90;6.40;;;;;;;;;;5058064;28;20048;-68
2022/08/25 06:25:50;;;;;;;11.68;6.07;;;;;;;;;;5056593;28;20099;-68
2022/08/25 06:28:22;;;;;;;7.15;5.88;;;;;;;;;;5064230;28;20040;-69
2022/08/25 06:30:49;;;;;;;12.40;6.30;;;;;;;;;;5053624;28;20024;-68
2022/08/25 06:33:15;;;;;;;19.45;6.30;;;;;;;;;;5056365;28;20114;-69
2022/08/25 06:35:42;;;;;;;10.20;5.72;;;;;;;;;;5066183;28;20020;-69
2022/08/25 06:38:08;;;;;;;13.75;5.43;;;;;;;;;;5070313;28;20024;-67
2022/08/25 06:40:34;;;;;;;11.35;5.30;;;;;;;;;;5066861;28;20035;-68
2022/08/25 06:43:00;;;;;;;10.50;5.55;;;;;;;;;;5071152;28;20033;-68
2022/08/25 06:45:26;;;;;;;11.18;5.53;;;;;;;;;;5069174;28;20059;-68
2022/08/25 06:47:53;;;;;;;11.85;4.80;;;;;;;;;;5062641;28;20082;-67
2022/08/25 06:50:19;;;;;;;10.07;4.72;;;;;;;;;;5052857;28;20032;-72
2022/08/25 06:52:45;;;;;;;9.02;4.90;;;;;;;;;;5050435;28;20398;-68
2022/08/25 06:55:11;;;;;;;9.95;4.75;;;;;;;;;;5054047;28;20041;-68
2022/08/25 06:57:38;;;;;;;9.15;4.05;;;;;;;;;;5053980;28;20127;-68
2022/08/25 07:00:06;;;;;;;9.38;4.28;;;;;;;;;;5061788;28;20029;-68
2022/08/25 07:02:32;;;;;;;8.50;4.40;;;;;;;;;;5067287;28;20063;-68
2022/08/25 07:04:59;;;;;;;7.90;4.05;;;;;;;;;;5057774;28;20057;-68
2022/08/25 07:07:25;;;;;;;6.72;3.92;;;;;;;;;;5052728;28;20597;-70
2022/08/25 07:09:51;;;;;;;6.82;4.10;;;;;;;;;;5056468;28;20032;-69
2022/08/25 07:12:17;;;;;;;8.05;3.72;;;;;;;;;;5062219;28;20037;-68
2022/08/25 07:14:43;;;;;;;8.55;4.10;;;;;;;;;;5059404;28;20560;-68
2022/08/25 07:17:09;;;;;;;7.53;3.83;;;;;;;;;;5064998;28;20042;-69
2022/08/25 07:19:35;;;;;;;11.65;4.38;;;;;;;;;;5048421;28;20129;-69
2022/08/25 07:22:01;;;;;;;8.55;3.55;;;;;;;;;;5057562;28;20044;-69
2022/08/25 07:24:27;;;;;;;13.48;4.28;;;;;;;;;;5066693;28;20033;-68
2022/08/25 07:26:53;;;;;;;7.25;4.05;;;;;;;;;;5057872;28;20055;-68
2022/08/25 07:29:22;;;;;;;9.48;3.55;;;;;;;;;;5051767;28;20033;-68
2022/08/25 07:31:48;;;;;;;15.70;4.10;;;;;;;;;;5050654;28;20028;-68
2022/08/25 07:36:59;;;;;;;10.57;3.80;;;;;;;;;;5055608;28;20044;-68
2022/08/25 07:39:26;;;;;;;10.43;3.80;;;;;;;;;;5056578;28;20028;-67
2022/08/25 07:41:52;;;;;;;9.18;4.10;;;;;;;;;;5060445;28;20060;-68
2022/08/25 07:44:18;;;;;;;8.65;3.78;;;;;;;;;;5052089;28;20116;-68
2022/08/25 07:46:44;;;;;;;10.15;4.05;;;;;;;;;;5050553;28;20025;-68
2022/08/25 07:49:10;;;;;;;10.07;4.05;;;;;;;;;;5042011;28;20040;-68
2022/08/25 07:51:37;;;;;;;9.75;3.45;;;;;;;;;;5039679;28;20123;-68
2022/08/25 07:54:04;;;;;;;12.98;3.55;;;;;;;;;;5039047;28;20029;-68
2022/08/25 07:56:30;;;;;;;14.68;3.55;;;;;;;;;;5030750;28;20017;-68
2022/08/25 07:58:56;;;;;;;8.25;3.70;;;;;;;;;;5021122;28;20495;-68
2022/08/25 08:01:24;;;;;;;13.05;3.67;;;;;;;;;;5035466;28;20052;-67
2022/08/25 08:03:50;;;;;;;9.45;3.72;;;;;;;;;;5032210;28;20022;-67
2022/08/25 08:06:17;;;;;;;8.02;3.38;;;;;;;;;;5009138;28;20057;-67
2022/08/25 08:08:45;;;;;;;8.90;3.53;;;;;;;;;;5047474;28;20048;-68
2022/08/25 08:11:16;;;;;;;11.10;3.47;;;;;;;;;;5030961;28;20036;-67
2022/08/25 08:13:43;;;;;;;11.52;3.55;;;;;;;;;;5043403;28;20107;-67
2022/08/25 08:16:10;;;;;;;10.43;3.20;;;;;;;;;;5036999;28;20095;-68
2022/08/25 08:18:36;;;;;;;8.43;2.90;;;;;;;;;;5037036;28;20039;-68
2022/08/25 08:21:11;;;;;;;14.02;3.80;;;;;;;;;;5040516;28;20389;-68
2022/08/25 08:23:37;;;;;;;10.98;4.15;;;;;;;;;;5037784;28;20067;-70
2022/08/25 08:26:03;;;;;;;10.35;3.42;;;;;;;;;;5037367;28;20041;-67
2022/08/25 08:28:29;;;;;;;11.20;3.35;;;;;;;;;;5038258;28;20041;-68
2022/08/25 08:30:56;;;;;;;11.88;3.60;;;;;;;;;;5040427;28;20337;-69
2022/08/25 08:33:23;;;;;;;8.23;3.50;;;;;;;;;;5032187;28;20718;-68
2022/08/25 08:35:55;;;;;;;5.30;3.05;;;;;;;;;;5042911;28;20136;-68
2022/08/25 08:38:22;;;;;;;7.97;3.28;;;;;;;;;;5034999;28;20497;-68
2022/08/25 08:42:15;;;;;;;14.80;3.50;;;;;;;;;;5013343;28;20122;-68
2022/08/25 08:43:42;;;;;;;10.00;3.30;;;;;;;;;;5034399;28;20029;-68
2022/08/25 08:46:09;;;;;;;5.03;3.13;;;;;;;;;;5035725;28;20087;-68
2022/08/25 08:48:44;;;;;;;9.75;3.00;;;;;;;;;;5015970;28;20041;-71
2022/08/25 08:51:13;;;;;;;9.82;3.13;;;;;;;;;;5040529;28;20557;-69
2022/08/25 08:53:45;;;;;;;10.30;3.58;;;;;;;;;;5031646;28;20033;-68
2022/08/25 08:56:16;;;;;;;11.05;3.25;;;;;;;;;;5014150;28;20033;-68
2022/08/25 08:58:44;;;;;;;10.88;3.08;;;;;;;;;;5037197;28;20060;-69
2022/08/25 09:01:13;;;;;;;6.78;3.03;;;;;;;;;;5049510;28;20041;-68
2022/08/25 09:03:41;;;;;;;11.93;3.13;;;;;;;;;;5034007;28;20120;-68
2022/08/25 09:06:10;;;;;;;6.05;3.20;;;;;;;;;;5034158;28;20371;-68
2022/08/25 09:08:36;;;;;;;6.80;3.10;;;;;;;;;;5033668;28;20103;-68
2022/08/25 09:11:02;;;;;;;8.60;3.28;;;;;;;;;;5035217;28;20030;-68
2022/08/25 09:13:28;;;;;;;9.02;3.10;;;;;;;;;;5037994;28;20065;-69
2022/08/25 09:18:53;;;;;;;7.97;4.15;;;;;;;;;;5039211;28;20036;-69
2022/08/25 09:21:29;;;;;;;8.63;3.30;;;;;;;;;;5041078;28;20716;-68
2022/08/25 09:24:05;;;;;;;8.43;2.97;;;;;;;;;;5038787;28;20040;-69
2022/08/25 09:26:39;;;;;;;10.95;3.20;;;;;;;;;;5035844;28;20036;-70
2022/08/25 09:29:19;;;;;;;9.55;2.97;;;;;;;;;;5016212;28;20485;-73
2022/08/25 09:31:47;;;;;;;12.65;3.10;;;;;;;;;;5044291;28;20045;-74
2022/08/25 09:34:17;;;;;;;6.95;2.90;;;;;;;;;;5011404;28;20144;-73
2022/08/25 09:36:45;;;;;;;5.47;2.90;;;;;;;;;;5028891;28;20033;-74
2022/08/25 09:39:11;;;;;;;7.78;3.10;;;;;;;;;;5030042;28;20057;-73
2022/08/25 09:41:48;;;;;;;13.80;3.03;;;;;;;;;;5046631;28;20033;-73
2022/08/25 09:44:25;;;;;;;11.60;2.90;;;;;;;;;;5036357;28;20481;-74
2022/08/25 09:47:14;;;;;;;8.20;3.00;;;;;;;;;;5037620;28;20040;-73
2022/08/25 09:49:46;;;;;;;10.25;3.40;;;;;;;;;;5034112;28;20041;-73
2022/08/25 09:52:25;;;;;;;11.38;2.90;;;;;;;;;;5052495;28;20100;-73
2022/08/25 09:54:51;;;;;;;12.47;2.90;;;;;;;;;;5035015;28;20060;-74
2022/08/25 09:57:28;;;;;;;8.13;2.72;;;;;;;;;;5033562;28;20056;-73
2022/08/25 09:59:54;;;;;;;9.48;3.20;;;;;;;;;;5036251;28;20099;-71
2022/08/25 10:02:24;;;;;;;7.25;2.63;;;;;;;;;;5029734;28;20341;-73
2022/08/25 10:04:56;;;;;;;7.53;2.53;;;;;;;;;;5035606;28;20030;-73
2022/08/25 10:07:26;;;;;;;9.98;2.95;;;;;;;;;;5033323;28;20103;-72
2022/08/25 10:09:56;;;;;;;6.15;2.72;;;;;;;;;;5033348;28;20482;-73
2022/08/25 10:12:28;;;;;;;6.30;2.60;;;;;;;;;;5044672;28;20451;-74
2022/08/25 10:14:54;;;;;;;6.57;2.60;;;;;;;;;;5039094;28;20087;-76
2022/08/25 10:17:25;;;;;;;8.98;2.80;;;;;;;;;;5046055;28;20029;-73
2022/08/25 10:19:51;;;;;;;10.85;2.90;;;;;;;;;;5049862;28;20478;-73
2022/08/25 10:22:23;;;;;;;13.23;2.67;;;;;;;;;;5046540;28;20052;-75
2022/08/25 10:24:49;;;;;;;10.50;2.67;;;;;;;;;;5033744;28;20037;-73
2022/08/25 10:27:38;;;;;;;6.60;2.55;;;;;;;;;;5045680;28;20041;-75
2022/08/25 10:30:07;;;;;;;6.82;2.55;;;;;;;;;;5046477;28;20083;-76
2022/08/25 10:32:47;;;;;;;10.95;3.00;;;;;;;;;;5046826;28;20029;-75
2022/08/25 10:35:22;;;;;;;8.30;2.63;;;;;;;;;;5052156;28;20089;-76
2022/08/25 10:37:51;;;;;;;9.48;2.75;;;;;;;;;;5053987;28;20026;-76
2022/08/25 10:40:23;;;;;;;4.80;2.47;;;;;;;;;;5063723;28;20116;-75
2022/08/25 10:42:52;;;;;;;8.02;2.90;;;;;;;;;;5056051;28;20036;-77
2022/08/25 10:45:41;;;;;;;9.90;2.53;;;;;;;;;;5043975;28;20498;-75
2022/08/25 10:48:11;;;;;;;6.40;2.60;;;;;;;;;;5029698;28;20303;-76
2022/08/25 10:50:43;;;;;;;6.32;2.60;;;;;;;;;;5042935;28;20084;-76
2022/08/25 10:53:14;;;;;;;8.43;2.25;;;;;;;;;;5046874;28;20029;-78
2022/08/25 10:55:50;;;;;;;8.98;2.08;;;;;;;;;;5045716;28;20013;-75
2022/08/25 10:58:31;;;;;;;8.65;2.50;;;;;;;;;;5037922;28;20508;-76
2022/08/25 11:01:15;;;;;;;7.40;2.20;;;;;;;;;;5042034;28;20042;-76
2022/08/25 11:03:43;;;;;;;4.47;2.30;;;;;;;;;;5044615;28;20030;-76
2022/08/25 11:06:16;;;;;;;5.10;2.30;;;;;;;;;;5042233;28;20065;-75
2022/08/25 11:08:48;;;;;;;7.47;2.15;;;;;;;;;;5044387;28;20049;-76
2022/08/25 11:11:20;;;;;;;4.95;2.30;;;;;;;;;;5057540;28;20021;-77
2022/08/25 11:13:47;;;;;;;5.80;2.53;;;;;;;;;;5050897;28;20065;-76
2022/08/25 11:16:19;;;;;;;13.85;2.30;;;;;;;;;;5041510;28;20029;-74
2022/08/25 11:18:57;;;;;;;8.25;2.80;;;;;;;;;;5050856;28;20413;-76
2022/08/25 11:21:26;;;;;;;10.05;2.40;;;;;;;;;;5047988;28;20096;-77
2022/08/25 11:23:55;;;;;;;9.70;2.40;;;;;;;;;;5037487;28;20025;-77
2022/08/25 11:26:28;;;;;;;6.82;2.60;;;;;;;;;;5039567;28;20040;-76
2022/08/25 11:29:00;;;;;;;8.30;2.35;;;;;;;;;;5039813;28;20033;-76
2022/08/25 11:31:26;;;;;;;7.43;2.70;;;;;;;;;;5045770;28;20040;-75
2022/08/25 11:33:53;;;;;;;8.10;2.95;;;;;;;;;;5042460;28;20038;-77
2022/08/25 11:36:29;;;;;;;5.82;2.25;;;;;;;;;;5038750;28;20041;-76
2022/08/25 11:39:00;;;;;;;7.55;2.83;;;;;;;;;;5045114;28;20048;-78
2022/08/25 11:41:32;;;;;;;5.65;2.45;;;;;;;;;;5023209;28;20111;-75
2022/08/25 11:44:17;;;;;;;4.90;2.70;;;;;;;;;;5039570;28;20462;-76
2022/08/25 11:46:51;;;;;;;12.93;3.65;;;;;;;;;;5051655;28;20033;-76
2022/08/25 11:49:36;;;;;;;6.97;2.42;;;;;;;;;;5054129;28;20112;-76
2022/08/25 11:52:03;;;;;;;7.13;2.65;;;;;;;;;;5053956;28;20187;-76
2022/08/25 11:54:38;;;;;;;5.13;2.70;;;;;;;;;;5037968;28;20024;-77
2022/08/25 11:57:05;;;;;;;4.22;2.20;;;;;;;;;;5052783;28;20029;-77
2022/08/25 11:59:52;;;;;;;6.10;2.50;;;;;;;;;;5050349;28;20092;-77
2022/08/25 12:02:27;;;;;;;11.25;2.53;;;;;;;;;;5048302;28;20056;-77
2022/08/25 12:04:54;;;;;;;11.93;2.95;;;;;;;;;;5045631;28;20151;-77
2022/08/25 12:07:24;;;;;;;5.35;2.42;;;;;;;;;;5050480;28;20079;-77
2022/08/25 12:09:50;;;;;;;5.55;2.35;;;;;;;;;;5029107;28;20069;-77
2022/08/25 12:12:22;;;;;;;5.90;2.65;;;;;;;;;;5048944;28;20032;-78
2022/08/25 12:14:51;;;;;;;7.10;2.60;;;;;;;;;;5040245;28;20041;-77
2022/08/25 12:17:18;;;;;;;13.52;2.85;;;;;;;;;;5048928;28;20036;-77
2022/08/25 12:19:44;;;;;;;7.32;2.45;;;;;;;;;;5049018;28;20414;-76
2022/08/25 12:22:10;;;;;;;8.88;2.30;;;;;;;;;;5051539;28;20048;-76
2022/08/25 12:24:55;;;;;;;9.52;2.50;;;;;;;;;;5049222;28;20047;-76
2022/08/25 12:27:39;;;;;;;9.73;2.88;;;;;;;;;;5048617;28;20024;-77
2022/08/25 12:30:14;;;;;;;8.82;3.15;;;;;;;;;;5047269;28;20037;-76
2022/08/25 12:32:53;;;;;;;8.23;2.88;;;;;;;;;;5037709;28;20017;-77
2022/08/25 12:35:30;;;;;;;9.00;3.10;;;;;;;;;;5045469;28;20021;-76
2022/08/25 12:38:04;;;;;;;10.82;2.55;;;;;;;;;;5046362;28;20517;-75
2022/08/25 12:40:33;;;;;;;9.43;2.70;;;;;;;;;;5043225;28;20032;-74
2022/08/25 12:43:18;;;;;;;6.95;2.95;;;;;;;;;;5046948;28;20096;-76
2022/08/25 12:45:45;;;;;;;5.82;2.38;;;;;;;;;;5040237;28;20062;-76
2022/08/25 12:48:26;;;;;;;7.00;2.60;;;;;;;;;;5038747;28;20025;-76
2022/08/25 12:50:57;;;;;;;7.50;2.60;;;;;;;;;;5031554;28;20021;-76
2022/08/25 12:53:32;;;;;;;10.70;2.50;;;;;;;;;;5044164;28;20033;-76
2022/08/25 12:56:28;;;;;;;6.05;2.38;;;;;;;;;;5030159;28;20476;-76
2022/08/25 12:58:56;;;;;;;3.65;2.35;;;;;;;;;;5020355;28;20496;-75
2022/08/25 13:01:33;;;;;;;5.97;2.42;;;;;;;;;;5026845;28;20473;-77
2022/08/25 13:04:17;;;;;;;8.90;2.63;;;;;;;;;;5041847;28;20052;-75
2022/08/25 13:07:02;;;;;;;8.38;2.65;;;;;;;;;;5042735;28;20052;-74
2022/08/25 13:09:57;;;;;;;6.88;2.60;;;;;;;;;;5038544;28;20068;-75
2022/08/25 13:12:26;;;;;;;7.75;2.80;;;;;;;;;;5036041;28;20022;-75
2022/08/25 13:14:53;;;;;;;10.18;2.72;;;;;;;;;;5039328;28;20033;-75
2022/08/25 13:17:30;;;;;;;8.02;2.97;;;;;;;;;;5049412;28;20033;-75
2022/08/25 13:20:11;;;;;;;7.88;2.58;;;;;;;;;;5042002;28;20026;-74
2022/08/25 13:22:37;;;;;;;9.98;3.70;;;;;;;;;;5044902;28;20509;-74
2022/08/25 13:25:04;;;;;;;8.10;2.78;;;;;;;;;;5041950;28;20041;-75
2022/08/25 13:27:31;;;;;;;8.43;2.55;;;;;;;;;;5039790;28;20112;-75
2022/08/25 13:29:58;;;;;;;6.22;2.58;;;;;;;;;;5027461;28;20099;-75
2022/08/25 13:32:27;;;;;;;9.18;3.10;;;;;;;;;;5016583;28;20520;-74
2022/08/25 13:35:06;;;;;;;8.68;2.72;;;;;;;;;;5038736;28;20033;-75
2022/08/25 13:37:32;;;;;;;12.43;2.67;;;;;;;;;;5038255;28;20072;-75
2022/08/25 13:40:11;;;;;;;10.50;2.78;;;;;;;;;;5039572;28;20042;-75
2022/08/25 13:42:41;;;;;;;6.60;2.85;;;;;;;;;;5033441;28;20107;-75
2022/08/25 13:45:07;;;;;;;;;;;;;;;;;;5036630;28;20057;-76
2022/08/25 13:47:40;;;;;;;5.60;2.97;;;;;;;;;;5041693;28;20417;-76
2022/08/25 13:50:25;;;;;;;10.93;2.83;;;;;;;;;;5039515;28;20100;-75
2022/08/25 13:52:53;;;;;;;5.53;2.60;;;;;;;;;;5035675;28;20029;-76
2022/08/25 13:55:25;;;;;;;10.43;2.83;;;;;;;;;;5038393;28;20508;-76
2022/08/25 13:57:51;;;;;;;9.57;3.15;;;;;;;;;;5036485;28;20444;-75
2022/08/25 14:00:28;;;;;;;8.43;2.80;;;;;;;;;;5037481;28;20453;-75
2022/08/25 14:02:55;;;;;;;9.55;2.67;;;;;;;;;;5028026;28;20057;-76
2022/08/25 14:05:33;;;;;;;7.43;2.75;;;;;;;;;;5037157;28;20037;-75
2022/08/25 14:07:59;;;;;;;5.35;2.58;;;;;;;;;;5023439;28;20494;-76
2022/08/25 14:10:37;;;;;;;5.97;2.45;;;;;;;;;;5039291;28;20529;-76
2022/08/25 14:13:12;;;;;;;7.63;3.10;;;;;;;;;;5037763;28;20030;-76
2022/08/25 14:15:39;;;;;;;9.60;2.60;;;;;;;;;;5036346;28;20029;-76
2022/08/25 14:18:07;;;;;;;8.77;2.42;;;;;;;;;;5014749;28;20033;-76
2022/08/25 14:20:34;;;;;;;8.25;2.90;;;;;;;;;;5036123;28;20026;-75
2022/08/25 14:23:03;;;;;;;8.15;2.70;;;;;;;;;;5039685;28;20094;-75
2022/08/25 14:25:30;;;;;;;11.00;3.20;;;;;;;;;;5021142;28;20036;-75
2022/08/25 14:28:03;;;;;;;8.10;3.08;;;;;;;;;;5037460;28;20182;-75
2022/08/25 14:30:31;;;;;;;7.72;3.08;;;;;;;;;;5042063;28;20083;-75
2022/08/25 14:32:57;;;;;;;10.85;3.10;;;;;;;;;;5041830;28;20060;-75
2022/08/25 14:35:23;;;;;;;10.85;3.88;;;;;;;;;;5039064;28;20017;-74
2022/08/25 14:37:49;;;;;;;10.15;3.58;;;;;;;;;;5040696;28;20113;-74
2022/08/25 14:40:18;;;;;;;10.30;3.20;;;;;;;;;;5041814;28;20556;-74
2022/08/25 14:42:46;;;;;;;8.95;3.53;;;;;;;;;;5041316;28;20113;-73
2022/08/25 14:45:12;;;;;;;7.00;2.95;;;;;;;;;;5034991;28;20041;-73
2022/08/25 14:47:39;;;;;;;12.85;3.17;;;;;;;;;;5041766;28;20040;-71
2022/08/25 14:50:06;;;;;;;14.32;3.33;;;;;;;;;;5023750;28;20104;-75
2022/08/25 14:52:32;;;;;;;11.88;3.40;;;;;;;;;;5040447;28;20021;-75